Time;durP1;ratioP1;P1;durP2;ratioP2;P2;SDS_P1;SDS_P2;PMS_P1;PMS_P2;Temp;Humidity;BMP_temperature;BMP_pressure;BME280_temperature;BME280_humidity;BME280_pressure;Samples;Min_cycle;Max_cycle;Signal;HPM_P1;HPM_P2
2022/09/26 00:00:31;;;;;;;5.30;2.55;;;;;;;;;;4974325;28;20060;-74
2022/09/26 00:02:57;;;;;;;5.85;2.30;;;;;;;;;;4962261;28;20098;-74
2022/09/26 00:05:23;;;;;;;6.68;2.70;;;;;;;;;;4948868;28;20043;-75
2022/09/26 00:07:49;;;;;;;7.07;3.05;;;;;;;;;;4972631;28;20138;-74
2022/09/26 00:10:15;;;;;;;6.75;2.67;;;;;;;;;;4961539;28;20126;-75
2022/09/26 00:12:41;;;;;;;5.75;2.50;;;;;;;;;;4961064;28;20071;-74
2022/09/26 00:15:07;;;;;;;9.35;2.88;;;;;;;;;;4959615;28;20039;-74
2022/09/26 00:17:33;;;;;;;7.88;2.78;;;;;;;;;;4954496;28;20138;-74
2022/09/26 00:20:00;;;;;;;3.45;2.65;;;;;;;;;;4956496;28;20047;-74
2022/09/26 00:22:26;;;;;;;6.93;2.83;;;;;;;;;;4956080;28;20047;-74
2022/09/26 00:24:52;;;;;;;3.28;2.22;;;;;;;;;;4954910;28;20047;-74
2022/09/26 00:27:19;;;;;;;3.38;2.35;;;;;;;;;;4954667;28;20039;-74
2022/09/26 00:29:45;;;;;;;6.18;3.03;;;;;;;;;;4953279;28;20134;-74
2022/09/26 00:32:11;;;;;;;5.95;2.63;;;;;;;;;;4954857;28;20518;-74
2022/09/26 00:34:37;;;;;;;7.05;2.67;;;;;;;;;;4961525;28;20047;-74
2022/09/26 00:37:03;;;;;;;5.40;2.50;;;;;;;;;;4970679;28;20043;-74
2022/09/26 00:39:29;;;;;;;4.38;2.33;;;;;;;;;;4973923;28;20051;-74
2022/09/26 00:41:55;;;;;;;4.15;2.42;;;;;;;;;;4973299;28;20043;-74
2022/09/26 00:44:40;;;;;;;4.25;2.40;;;;;;;;;;4949384;28;20078;-75
2022/09/26 00:47:10;;;;;;;3.92;2.05;;;;;;;;;;4957164;28;20051;-74
2022/09/26 00:49:37;;;;;;;6.22;2.95;;;;;;;;;;4960296;28;20362;-74
2022/09/26 00:52:03;;;;;;;5.43;2.45;;;;;;;;;;4954827;28;20039;-74
2022/09/26 00:54:30;;;;;;;5.75;2.35;;;;;;;;;;4937285;28;20049;-74
2022/09/26 00:57:02;;;;;;;5.07;2.13;;;;;;;;;;4962705;28;20122;-75
2022/09/26 00:59:33;;;;;;;4.05;2.13;;;;;;;;;;4952455;28;20078;-74
2022/09/26 01:02:00;;;;;;;5.05;2.00;;;;;;;;;;4953763;28;20048;-74
2022/09/26 01:04:27;;;;;;;5.28;2.05;;;;;;;;;;4953822;28;20053;-74
2022/09/26 01:06:54;;;;;;;3.90;1.92;;;;;;;;;;4952657;28;20055;-74
2022/09/26 01:09:21;;;;;;;5.10;2.20;;;;;;;;;;4959211;28;20100;-74
2022/09/26 01:11:47;;;;;;;5.55;2.20;;;;;;;;;;4972773;28;20047;-74
2022/09/26 01:14:13;;;;;;;3.75;1.90;;;;;;;;;;4973319;28;20129;-74
2022/09/26 01:16:40;;;;;;;3.65;2.17;;;;;;;;;;4953617;28;20070;-74
2022/09/26 01:19:19;;;;;;;4.90;2.10;;;;;;;;;;4953407;28;20123;-74
2022/09/26 01:22:17;;;;;;;5.30;2.30;;;;;;;;;;4970508;28;20054;-74
2022/09/26 01:25:02;;;;;;;5.65;2.38;;;;;;;;;;4953837;28;20453;-74
2022/09/26 01:27:34;;;;;;;4.72;2.45;;;;;;;;;;4959655;28;20047;-74
2022/09/26 01:30:07;;;;;;;3.60;2.10;;;;;;;;;;4971912;28;20054;-74
2022/09/26 01:32:48;;;;;;;3.92;2.03;;;;;;;;;;4963111;28;20047;-74
2022/09/26 01:35:14;;;;;;;2.72;1.83;;;;;;;;;;4961076;28;20076;-74
2022/09/26 01:37:58;;;;;;;3.72;2.00;;;;;;;;;;4965358;28;20043;-75
2022/09/26 01:40:43;;;;;;;7.22;2.33;;;;;;;;;;4952096;28;20509;-75
2022/09/26 01:43:10;;;;;;;6.18;2.15;;;;;;;;;;4954418;28;20058;-74
2022/09/26 01:45:49;;;;;;;4.95;2.03;;;;;;;;;;4956813;28;20477;-74
2022/09/26 01:48:18;;;;;;;4.53;2.10;;;;;;;;;;4965692;28;20039;-74
2022/09/26 01:50:51;;;;;;;4.10;2.05;;;;;;;;;;4968747;28;20096;-74
2022/09/26 01:53:20;;;;;;;4.90;2.17;;;;;;;;;;4969058;28;20145;-74
2022/09/26 01:55:55;;;;;;;4.43;2.05;;;;;;;;;;4953047;28;20058;-75
2022/09/26 01:58:27;;;;;;;6.15;2.42;;;;;;;;;;4952738;28;20287;-75
2022/09/26 02:00:57;;;;;;;5.60;2.05;;;;;;;;;;4951503;28;20405;-75
2022/09/26 02:03:26;;;;;;;6.38;2.40;;;;;;;;;;4953325;28;20047;-75
2022/09/26 02:06:00;;;;;;;7.15;2.58;;;;;;;;;;4967932;28;20047;-76
2022/09/26 02:08:47;;;;;;;4.57;2.50;;;;;;;;;;4971482;28;20051;-76
2022/09/26 02:11:16;;;;;;;6.15;2.58;;;;;;;;;;4953064;29;20058;-76
2022/09/26 02:13:56;;;;;;;6.32;2.95;;;;;;;;;;4935861;28;20078;-76
2022/09/26 02:16:26;;;;;;;3.38;2.53;;;;;;;;;;4968739;28;20096;-76
2022/09/26 02:18:57;;;;;;;3.97;2.70;;;;;;;;;;4961102;28;20061;-76
2022/09/26 02:21:23;;;;;;;4.18;2.90;;;;;;;;;;4952882;28;20058;-75
2022/09/26 02:23:50;;;;;;;6.30;3.30;;;;;;;;;;4953183;28;20548;-75
2022/09/26 02:26:17;;;;;;;5.45;3.03;;;;;;;;;;4957028;28;20126;-75
2022/09/26 02:28:43;;;;;;;7.43;2.92;;;;;;;;;;4960690;28;20485;-75
2022/09/26 02:31:11;;;;;;;6.50;3.30;;;;;;;;;;4971012;28;20070;-75
2022/09/26 02:33:37;;;;;;;5.45;2.95;;;;;;;;;;4960847;28;20047;-75
2022/09/26 02:36:05;;;;;;;6.35;3.20;;;;;;;;;;4959858;28;20470;-75
2022/09/26 02:38:31;;;;;;;7.10;3.38;;;;;;;;;;4970674;28;20138;-75
2022/09/26 02:40:58;;;;;;;10.07;3.70;;;;;;;;;;4968204;28;20035;-75
2022/09/26 02:43:48;;;;;;;8.27;3.90;;;;;;;;;;4970158;28;20051;-75
2022/09/26 02:46:14;;;;;;;7.35;3.60;;;;;;;;;;4963192;28;20047;-75
2022/09/26 02:48:59;;;;;;;7.10;3.85;;;;;;;;;;4952399;28;20108;-75
2022/09/26 02:51:45;;;;;;;5.80;4.05;;;;;;;;;;4954201;28;20133;-75
2022/09/26 02:54:23;;;;;;;5.40;4.15;;;;;;;;;;4963913;28;20535;-75
2022/09/26 02:56:49;;;;;;;8.23;4.97;;;;;;;;;;4971353;28;20043;-75
2022/09/26 02:59:21;;;;;;;6.47;4.53;;;;;;;;;;4969641;28;20038;-75
2022/09/26 03:01:51;;;;;;;6.68;4.35;;;;;;;;;;4975091;28;20114;-76
2022/09/26 03:04:19;;;;;;;9.80;5.22;;;;;;;;;;4959377;28;20548;-75
2022/09/26 03:06:48;;;;;;;9.70;4.60;;;;;;;;;;4955623;28;20051;-75
2022/09/26 03:09:15;;;;;;;7.72;4.20;;;;;;;;;;4961941;28;20039;-76
2022/09/26 03:11:42;;;;;;;5.07;4.38;;;;;;;;;;4974526;28;20046;-75
2022/09/26 03:14:08;;;;;;;8.23;5.00;;;;;;;;;;4974289;28;20114;-75
2022/09/26 03:16:37;;;;;;;7.70;4.80;;;;;;;;;;4974203;28;20525;-75
2022/09/26 03:19:13;;;;;;;9.52;5.13;;;;;;;;;;4961273;28;20077;-75
2022/09/26 03:21:40;;;;;;;7.57;4.68;;;;;;;;;;4958917;28;20043;-76
2022/09/26 03:24:06;;;;;;;8.07;5.32;;;;;;;;;;4955162;28;20054;-75
2022/09/26 03:26:32;;;;;;;8.80;5.38;;;;;;;;;;4954942;28;20105;-75
2022/09/26 03:28:58;;;;;;;8.38;5.20;;;;;;;;;;4956542;28;20039;-75
2022/09/26 03:31:24;;;;;;;10.55;5.70;;;;;;;;;;4974369;28;20057;-75
2022/09/26 03:33:51;;;;;;;9.20;5.78;;;;;;;;;;4957543;28;20123;-75
2022/09/26 03:36:17;;;;;;;6.97;4.90;;;;;;;;;;4972862;28;20049;-75
2022/09/26 03:38:43;;;;;;;6.97;4.80;;;;;;;;;;4974491;28;20042;-75
2022/09/26 03:41:10;;;;;;;10.27;5.60;;;;;;;;;;4966855;28;20050;-75
2022/09/26 03:43:36;;;;;;;8.73;5.20;;;;;;;;;;4975582;28;20451;-75
2022/09/26 03:46:06;;;;;;;9.27;5.10;;;;;;;;;;4975156;28;20047;-75
2022/09/26 03:48:33;;;;;;;7.22;5.22;;;;;;;;;;4962391;28;20043;-75
2022/09/26 03:51:03;;;;;;;8.43;5.53;;;;;;;;;;4958796;28;20096;-76
2022/09/26 03:53:31;;;;;;;8.35;5.38;;;;;;;;;;4955509;28;20177;-75
2022/09/26 03:56:11;;;;;;;8.32;5.70;;;;;;;;;;4954621;28;20087;-75
2022/09/26 03:58:38;;;;;;;7.38;5.55;;;;;;;;;;4963018;28;20050;-75
2022/09/26 04:01:09;;;;;;;7.47;5.60;;;;;;;;;;4966507;28;20043;-75
2022/09/26 04:03:36;;;;;;;6.75;5.90;;;;;;;;;;4961618;28;20088;-75
2022/09/26 04:06:02;;;;;;;9.15;5.18;;;;;;;;;;4962379;28;20099;-75
2022/09/26 04:08:29;;;;;;;7.95;5.05;;;;;;;;;;4956470;28;20519;-75
2022/09/26 04:11:02;;;;;;;9.18;6.13;;;;;;;;;;4972305;28;20419;-75
2022/09/26 04:13:28;;;;;;;7.53;5.43;;;;;;;;;;4974001;28;20043;-76
2022/09/26 04:15:55;;;;;;;7.28;5.15;;;;;;;;;;4955243;28;20505;-75
2022/09/26 04:18:21;;;;;;;8.35;5.55;;;;;;;;;;4971965;28;20113;-76
2022/09/26 04:20:47;;;;;;;9.02;6.07;;;;;;;;;;4959370;28;20516;-76
2022/09/26 04:23:13;;;;;;;8.30;5.35;;;;;;;;;;4969649;28;20038;-76
2022/09/26 04:25:39;;;;;;;6.10;5.38;;;;;;;;;;4972518;28;20047;-76
2022/09/26 04:28:05;;;;;;;8.25;5.28;;;;;;;;;;4967053;28;20097;-76
2022/09/26 04:30:31;;;;;;;7.50;5.15;;;;;;;;;;4953055;28;20047;-75
2022/09/26 04:32:57;;;;;;;8.80;5.10;;;;;;;;;;4968804;28;20105;-75
2022/09/26 04:35:24;;;;;;;9.35;4.88;;;;;;;;;;4963299;28;20051;-75
2022/09/26 04:37:50;;;;;;;6.93;4.68;;;;;;;;;;4964519;28;20089;-75
2022/09/26 04:40:16;;;;;;;7.75;4.78;;;;;;;;;;4973602;28;20047;-76
2022/09/26 04:42:42;;;;;;;5.85;4.90;;;;;;;;;;4972440;28;20409;-75
2022/09/26 04:45:09;;;;;;;6.00;4.63;;;;;;;;;;4956921;28;20112;-75
2022/09/26 04:47:35;;;;;;;6.45;4.60;;;;;;;;;;4959878;28;20082;-76
2022/09/26 04:50:01;;;;;;;7.53;5.20;;;;;;;;;;4959999;28;20071;-76
2022/09/26 04:52:27;;;;;;;6.88;4.32;;;;;;;;;;4957296;28;20485;-76
2022/09/26 04:54:53;;;;;;;7.90;4.25;;;;;;;;;;4953780;29;20083;-76
2022/09/26 04:57:19;;;;;;;7.97;5.05;;;;;;;;;;4953245;28;20118;-76
2022/09/26 04:59:45;;;;;;;6.32;4.97;;;;;;;;;;4969408;28;20121;-76
2022/09/26 05:02:11;;;;;;;8.93;5.15;;;;;;;;;;4957149;28;20035;-76
2022/09/26 05:04:37;;;;;;;8.00;5.00;;;;;;;;;;4962190;28;20046;-76
2022/09/26 05:07:03;;;;;;;5.82;4.93;;;;;;;;;;4958118;28;20428;-75
2022/09/26 05:09:30;;;;;;;9.90;4.93;;;;;;;;;;4952102;28;20455;-76
2022/09/26 05:11:59;;;;;;;7.13;4.90;;;;;;;;;;4953904;28;20185;-76
2022/09/26 05:14:25;;;;;;;7.05;4.88;;;;;;;;;;4955497;28;20494;-76
2022/09/26 05:16:51;;;;;;;7.13;5.03;;;;;;;;;;4953740;28;20051;-76
2022/09/26 05:19:17;;;;;;;10.35;5.75;;;;;;;;;;4968633;28;20047;-76
2022/09/26 05:21:43;;;;;;;8.65;5.78;;;;;;;;;;4953587;28;20521;-76
2022/09/26 05:26:54;;;;;;;9.55;5.50;;;;;;;;;;4966325;28;20050;-76
2022/09/26 05:29:20;;;;;;;8.52;6.03;;;;;;;;;;4972309;28;20134;-76
2022/09/26 05:31:47;;;;;;;7.40;5.32;;;;;;;;;;4962310;28;20512;-76
2022/09/26 05:34:14;;;;;;;7.63;5.85;;;;;;;;;;4958904;28;20491;-76
2022/09/26 05:36:41;;;;;;;8.25;6.53;;;;;;;;;;4953963;28;20051;-76
2022/09/26 05:40:55;;;;;;;8.85;6.53;;;;;;;;;;4958129;28;20046;-76
2022/09/26 05:41:54;;;;;;;7.90;5.70;;;;;;;;;;4972523;28;20058;-76
2022/09/26 05:44:20;;;;;;;7.80;5.60;;;;;;;;;;4971672;28;20401;-75
2022/09/26 05:46:46;;;;;;;11.23;6.05;;;;;;;;;;4970551;28;20054;-76
2022/09/26 05:49:13;;;;;;;11.43;6.45;;;;;;;;;;4955586;28;20093;-75
2022/09/26 05:51:40;;;;;;;8.82;6.38;;;;;;;;;;4961662;28;20047;-75
2022/09/26 05:54:06;;;;;;;9.90;6.30;;;;;;;;;;4958298;28;20057;-76
2022/09/26 05:56:36;;;;;;;9.98;6.20;;;;;;;;;;4952951;28;20043;-75
2022/09/26 05:59:02;;;;;;;9.30;6.13;;;;;;;;;;4952196;28;20059;-76
2022/09/26 06:01:28;;;;;;;8.30;5.60;;;;;;;;;;4954896;28;20047;-75
2022/09/26 06:03:54;;;;;;;7.90;5.85;;;;;;;;;;4959244;28;20047;-75
2022/09/26 06:06:23;;;;;;;10.30;6.22;;;;;;;;;;4971210;28;20077;-76
2022/09/26 06:08:49;;;;;;;7.57;6.07;;;;;;;;;;4972176;28;20047;-79
2022/09/26 06:11:23;;;;;;;9.27;5.55;;;;;;;;;;4958341;28;20067;-76
2022/09/26 06:13:49;;;;;;;7.93;5.90;;;;;;;;;;4953321;28;20054;-76
2022/09/26 06:16:18;;;;;;;9.80;5.88;;;;;;;;;;4954519;28;20159;-76
2022/09/26 06:18:45;;;;;;;13.85;6.45;;;;;;;;;;4958239;28;20054;-76
2022/09/26 06:21:12;;;;;;;9.45;6.00;;;;;;;;;;4952986;28;20101;-76
2022/09/26 06:23:39;;;;;;;9.73;5.65;;;;;;;;;;4955969;28;20050;-76
2022/09/26 06:26:16;;;;;;;8.80;5.55;;;;;;;;;;4958664;28;20126;-76
2022/09/26 06:28:42;;;;;;;9.85;5.68;;;;;;;;;;4952026;29;20056;-76
2022/09/26 06:31:09;;;;;;;9.98;5.60;;;;;;;;;;4954925;28;20043;-76
2022/09/26 06:33:35;;;;;;;8.00;4.82;;;;;;;;;;4953908;28;20054;-76
2022/09/26 06:36:02;;;;;;;7.10;4.75;;;;;;;;;;4955961;28;20039;-76
2022/09/26 06:38:28;;;;;;;7.18;5.25;;;;;;;;;;4956270;28;20059;-76
2022/09/26 06:40:55;;;;;;;7.65;5.03;;;;;;;;;;4962617;28;20442;-76
2022/09/26 06:43:21;;;;;;;8.55;5.22;;;;;;;;;;4969061;28;20051;-75
2022/09/26 06:45:50;;;;;;;7.65;5.20;;;;;;;;;;4968388;28;20074;-76
2022/09/26 06:48:17;;;;;;;7.57;4.53;;;;;;;;;;4971536;28;20122;-75
2022/09/26 06:50:43;;;;;;;10.32;4.63;;;;;;;;;;4958459;28;20074;-75
2022/09/26 06:53:09;;;;;;;7.40;4.72;;;;;;;;;;4963105;28;20039;-75
2022/09/26 06:55:36;;;;;;;6.47;4.55;;;;;;;;;;4973374;28;20425;-76
2022/09/26 06:58:02;;;;;;;6.10;4.85;;;;;;;;;;4975229;28;20065;-76
2022/09/26 07:00:28;;;;;;;6.63;4.80;;;;;;;;;;4974347;28;20400;-76
2022/09/26 07:02:55;;;;;;;7.85;4.53;;;;;;;;;;4974380;28;20047;-75
2022/09/26 07:05:22;;;;;;;9.80;5.03;;;;;;;;;;4974463;28;20054;-76
2022/09/26 07:07:48;;;;;;;8.32;4.65;;;;;;;;;;4973735;28;20541;-76
2022/09/26 07:10:17;;;;;;;6.95;5.07;;;;;;;;;;4972362;28;20095;-75
2022/09/26 07:12:45;;;;;;;7.65;5.07;;;;;;;;;;4973760;28;20562;-75
2022/09/26 07:15:12;;;;;;;7.10;4.75;;;;;;;;;;4972840;28;20051;-75
2022/09/26 07:17:38;;;;;;;10.60;4.93;;;;;;;;;;4974299;28;20058;-75
2022/09/26 07:20:06;;;;;;;8.70;4.75;;;;;;;;;;4973851;28;20104;-75
2022/09/26 07:22:32;;;;;;;6.93;4.38;;;;;;;;;;4957387;28;20091;-75
2022/09/26 07:24:58;;;;;;;7.90;4.95;;;;;;;;;;4958582;28;20055;-75
2022/09/26 07:27:25;;;;;;;8.23;4.68;;;;;;;;;;4957506;28;20105;-75
2022/09/26 07:29:51;;;;;;;7.47;5.22;;;;;;;;;;4953972;28;20052;-75
2022/09/26 07:32:17;;;;;;;7.95;4.72;;;;;;;;;;4954149;28;20446;-75
2022/09/26 07:34:43;;;;;;;7.38;4.78;;;;;;;;;;4955519;28;20085;-75
2022/09/26 07:37:12;;;;;;;7.10;4.28;;;;;;;;;;4970540;28;20149;-75
2022/09/26 07:39:38;;;;;;;8.23;4.82;;;;;;;;;;4961954;28;20122;-75
2022/09/26 07:42:05;;;;;;;7.25;4.38;;;;;;;;;;4955956;28;20561;-75
2022/09/26 07:44:31;;;;;;;6.57;4.25;;;;;;;;;;4967551;28;20096;-76
2022/09/26 07:52:28;;;;;;;6.15;4.00;;;;;;;;;;4961652;28;20449;-76
2022/09/26 07:54:54;;;;;;;9.18;4.25;;;;;;;;;;4973877;28;20085;-75
2022/09/26 07:57:20;;;;;;;7.28;4.45;;;;;;;;;;4974381;28;20084;-76
2022/09/26 07:59:48;;;;;;;7.53;4.25;;;;;;;;;;4981664;28;20043;-76
2022/09/26 08:02:21;;;;;;;6.43;4.10;;;;;;;;;;5075806;28;20110;-76
2022/09/26 08:04:53;;;;;;;7.53;4.28;;;;;;;;;;5031458;28;20465;-76
2022/09/26 08:07:19;;;;;;;5.63;4.28;;;;;;;;;;4959562;28;20051;-76
2022/09/26 08:09:45;;;;;;;7.57;4.43;;;;;;;;;;4964608;28;20047;-78
2022/09/26 08:12:13;;;;;;;6.63;4.32;;;;;;;;;;4968472;28;20042;-75
2022/09/26 08:14:39;;;;;;;6.90;4.00;;;;;;;;;;4965629;28;20402;-76
2022/09/26 08:17:05;;;;;;;6.45;4.03;;;;;;;;;;4956523;28;20501;-75
2022/09/26 08:19:31;;;;;;;10.38;4.78;;;;;;;;;;4971732;28;20117;-75
2022/09/26 08:21:57;;;;;;;6.07;3.80;;;;;;;;;;4959826;28;20142;-75
2022/09/26 08:24:24;;;;;;;6.78;4.68;;;;;;;;;;4970767;28;20101;-75
2022/09/26 08:26:50;;;;;;;5.97;4.20;;;;;;;;;;4979370;28;20070;-75
2022/09/26 08:29:16;;;;;;;6.07;3.92;;;;;;;;;;4968273;28;20414;-75
2022/09/26 08:31:44;;;;;;;6.72;4.25;;;;;;;;;;4958466;28;20047;-75
2022/09/26 08:34:10;;;;;;;7.55;3.65;;;;;;;;;;4955112;28;20426;-75
2022/09/26 08:36:36;;;;;;;6.60;4.13;;;;;;;;;;4969293;28;20176;-75
2022/09/26 08:39:03;;;;;;;6.07;3.55;;;;;;;;;;4955274;28;20047;-76
2022/09/26 08:41:38;;;;;;;13.32;4.38;;;;;;;;;;5007007;28;20584;-75
2022/09/26 08:44:30;;;;;;;6.55;4.28;;;;;;;;;;4961474;28;20053;-75
2022/09/26 08:47:03;;;;;;;6.68;4.15;;;;;;;;;;4975378;28;20043;-76
2022/09/26 08:49:49;;;;;;;7.60;4.13;;;;;;;;;;5013742;28;20052;-76
2022/09/26 08:52:34;;;;;;;6.63;4.05;;;;;;;;;;4993296;28;20085;-77
2022/09/26 08:55:04;;;;;;;6.05;4.22;;;;;;;;;;4956014;28;20490;-76
2022/09/26 08:57:34;;;;;;;7.25;4.50;;;;;;;;;;4952740;29;20044;-75
2022/09/26 09:00:07;;;;;;;8.13;4.97;;;;;;;;;;4967911;28;20043;-75
2022/09/26 09:02:48;;;;;;;7.45;4.57;;;;;;;;;;4970742;28;20126;-78
2022/09/26 09:05:20;;;;;;;5.82;4.63;;;;;;;;;;4969564;28;20133;-75
2022/09/26 09:07:48;;;;;;;8.13;5.00;;;;;;;;;;4973162;28;20051;-77
2022/09/26 09:10:16;;;;;;;8.13;5.30;;;;;;;;;;4972999;28;20118;-75
2022/09/26 09:12:42;;;;;;;9.40;5.47;;;;;;;;;;4972766;28;20390;-76
2022/09/26 09:15:21;;;;;;;9.18;5.10;;;;;;;;;;4971562;28;20497;-76
2022/09/26 09:17:58;;;;;;;10.57;5.55;;;;;;;;;;4971586;28;20059;-74
2022/09/26 09:20:39;;;;;;;7.05;5.65;;;;;;;;;;4954156;28;20051;-75
2022/09/26 09:23:24;;;;;;;7.68;4.80;;;;;;;;;;4953753;28;20039;-75
2022/09/26 09:25:53;;;;;;;7.65;5.30;;;;;;;;;;4952552;28;20044;-75
2022/09/26 09:28:38;;;;;;;9.40;5.50;;;;;;;;;;4952256;28;20138;-75
2022/09/26 09:31:08;;;;;;;9.15;6.18;;;;;;;;;;4970144;28;20070;-74
2022/09/26 09:33:37;;;;;;;9.38;5.60;;;;;;;;;;4972451;28;20070;-75
2022/09/26 09:36:09;;;;;;;7.00;4.82;;;;;;;;;;4972691;28;20042;-76
2022/09/26 09:38:37;;;;;;;6.80;5.95;;;;;;;;;;4972574;28;20046;-75
2022/09/26 09:41:11;;;;;;;10.13;6.43;;;;;;;;;;4970267;28;20051;-78
2022/09/26 09:43:46;;;;;;;9.25;5.65;;;;;;;;;;4970681;28;20046;-77
2022/09/26 09:46:15;;;;;;;10.57;6.32;;;;;;;;;;4953202;28;20105;-75
2022/09/26 09:48:41;;;;;;;9.18;5.88;;;;;;;;;;4953590;28;20462;-79
2022/09/26 09:51:07;;;;;;;9.10;6.90;;;;;;;;;;4951683;28;20100;-75
2022/09/26 09:53:33;;;;;;;9.93;6.75;;;;;;;;;;4953640;28;20051;-75
2022/09/26 09:56:18;;;;;;;11.60;7.60;;;;;;;;;;4967531;28;20052;-75
2022/09/26 09:58:44;;;;;;;8.07;6.50;;;;;;;;;;5025674;28;20051;-74
2022/09/26 10:01:32;;;;;;;9.23;6.65;;;;;;;;;;4952108;28;20085;-73
2022/09/26 10:03:58;;;;;;;9.15;6.80;;;;;;;;;;4965688;28;20039;-74
2022/09/26 10:06:25;;;;;;;11.82;7.22;;;;;;;;;;4968337;28;20073;-75
2022/09/26 10:08:51;;;;;;;8.85;7.18;;;;;;;;;;4957752;28;20059;-77
2022/09/26 10:11:22;;;;;;;7.60;6.57;;;;;;;;;;4951687;28;20050;-75
2022/09/26 10:13:52;;;;;;;10.55;7.13;;;;;;;;;;4951749;28;20075;-75
2022/09/26 10:16:18;;;;;;;10.15;7.05;;;;;;;;;;4952230;28;20563;-75
2022/09/26 10:18:59;;;;;;;8.95;6.93;;;;;;;;;;4952567;28;20540;-75
2022/09/26 10:21:27;;;;;;;7.70;6.68;;;;;;;;;;4951735;29;20089;-75
2022/09/26 10:23:53;;;;;;;7.32;5.78;;;;;;;;;;4952622;28;20476;-76
2022/09/26 10:26:24;;;;;;;8.50;6.70;;;;;;;;;;4952711;28;20507;-77
2022/09/26 10:28:51;;;;;;;8.25;5.97;;;;;;;;;;4952723;28;20387;-76
2022/09/26 10:31:23;;;;;;;7.03;5.60;;;;;;;;;;4953038;28;20058;-77
2022/09/26 10:33:58;;;;;;;7.43;6.03;;;;;;;;;;4961395;28;20043;-76
2022/09/26 10:36:29;;;;;;;7.90;6.30;;;;;;;;;;4952584;28;20048;-76
2022/09/26 10:41:45;;;;;;;9.52;7.20;;;;;;;;;;4952798;28;20126;-76
2022/09/26 10:44:41;;;;;;;8.07;6.90;;;;;;;;;;4953481;28;20047;-76
2022/09/26 10:47:12;;;;;;;8.52;7.22;;;;;;;;;;4956516;28;20073;-76
2022/09/26 10:49:45;;;;;;;10.20;7.80;;;;;;;;;;4983341;28;20063;-77
2022/09/26 10:52:16;;;;;;;7.85;6.82;;;;;;;;;;4970298;28;20049;-78
2022/09/26 10:54:56;;;;;;;9.18;7.28;;;;;;;;;;4950896;28;20054;-76
2022/09/26 10:57:27;;;;;;;8.48;6.72;;;;;;;;;;4952988;29;20047;-76
2022/09/26 10:59:54;;;;;;;8.40;6.90;;;;;;;;;;4955592;28;20104;-75
2022/09/26 11:02:23;;;;;;;8.73;7.35;;;;;;;;;;4960458;28;20045;-75
2022/09/26 11:07:47;;;;;;;8.98;7.30;;;;;;;;;;4936717;28;20051;-75
2022/09/26 11:10:16;;;;;;;9.73;7.43;;;;;;;;;;4952697;28;20533;-75
2022/09/26 11:12:57;;;;;;;8.57;7.00;;;;;;;;;;4964999;28;20096;-75
2022/09/26 11:15:24;;;;;;;8.85;6.90;;;;;;;;;;4968168;28;20046;-76
2022/09/26 11:17:54;;;;;;;8.13;7.32;;;;;;;;;;4960910;28;20063;-75
2022/09/26 11:20:24;;;;;;;7.40;6.68;;;;;;;;;;4952473;28;20055;-76
2022/09/26 11:23:01;;;;;;;8.02;7.22;;;;;;;;;;4964357;28;20478;-76
2022/09/26 11:25:29;;;;;;;9.50;7.53;;;;;;;;;;4956662;28;20078;-77
2022/09/26 11:28:00;;;;;;;8.85;7.40;;;;;;;;;;4962998;28;20051;-79
2022/09/26 11:30:27;;;;;;;9.40;7.05;;;;;;;;;;4961784;28;20081;-75
2022/09/26 11:32:55;;;;;;;8.38;7.55;;;;;;;;;;4954026;28;20339;-74
2022/09/26 11:35:33;;;;;;;7.47;6.68;;;;;;;;;;4955207;28;20142;-74
2022/09/26 11:38:10;;;;;;;8.30;6.50;;;;;;;;;;4955265;28;20127;-74
2022/09/26 11:40:36;;;;;;;8.43;6.55;;;;;;;;;;4967834;28;20082;-74
2022/09/26 11:43:07;;;;;;;7.65;6.72;;;;;;;;;;4967026;28;20092;-74
2022/09/26 11:45:33;;;;;;;8.32;6.72;;;;;;;;;;4958911;28;20050;-74
2022/09/26 11:47:59;;;;;;;7.97;7.18;;;;;;;;;;4954687;28;20051;-75
2022/09/26 11:50:40;;;;;;;8.25;7.35;;;;;;;;;;4954682;29;20477;-75
2022/09/26 11:53:25;;;;;;;10.88;8.40;;;;;;;;;;4954806;29;20054;-76
2022/09/26 11:56:04;;;;;;;7.72;6.93;;;;;;;;;;4970535;28;20452;-76
2022/09/26 11:58:39;;;;;;;8.80;6.50;;;;;;;;;;4972606;28;20096;-76
2022/09/26 12:01:11;;;;;;;7.38;6.68;;;;;;;;;;4955295;28;20043;-75
2022/09/26 12:03:48;;;;;;;7.80;6.60;;;;;;;;;;4953043;28;20051;-76
2022/09/26 12:06:24;;;;;;;8.10;7.30;;;;;;;;;;4954918;28;20051;-75
2022/09/26 12:08:56;;;;;;;8.52;7.13;;;;;;;;;;4963652;28;20047;-74
2022/09/26 12:11:38;;;;;;;8.38;7.28;;;;;;;;;;4968586;28;20062;-75
2022/09/26 12:14:08;;;;;;;9.02;7.03;;;;;;;;;;4972745;28;20050;-75
2022/09/26 12:16:45;;;;;;;8.70;7.78;;;;;;;;;;4955811;28;20059;-74
2022/09/26 12:19:11;;;;;;;10.32;7.80;;;;;;;;;;4954547;28;20086;-74
2022/09/26 12:24:52;;;;;;;9.43;7.80;;;;;;;;;;4962383;28;20055;-74
2022/09/26 12:27:24;;;;;;;10.30;8.23;;;;;;;;;;4960883;28;20083;-75
2022/09/26 12:29:51;;;;;;;11.02;8.57;;;;;;;;;;4970412;28;20105;-76
2022/09/26 12:32:23;;;;;;;10.70;8.25;;;;;;;;;;4976008;28;20061;-75
2022/09/26 12:34:56;;;;;;;11.23;8.63;;;;;;;;;;4977792;28;20051;-75
2022/09/26 12:37:38;;;;;;;10.95;8.55;;;;;;;;;;4973502;28;20050;-75
2022/09/26 12:40:28;;;;;;;14.07;9.00;;;;;;;;;;4973441;28;20093;-75
2022/09/26 12:43:12;;;;;;;9.30;7.57;;;;;;;;;;5052646;28;20061;-75
2022/09/26 12:45:57;;;;;;;11.10;7.00;;;;;;;;;;5052555;28;20044;-74
2022/09/26 12:48:34;;;;;;;9.13;6.10;;;;;;;;;;5036339;28;20098;-75
2022/09/26 12:51:07;;;;;;;7.13;4.97;;;;;;;;;;5052802;28;20095;-84
2022/09/26 12:53:47;;;;;;;8.15;4.68;;;;;;;;;;5054512;28;20091;-77
2022/09/26 12:56:21;;;;;;;7.53;3.92;;;;;;;;;;5060584;28;20054;-76
2022/09/26 12:58:59;;;;;;;5.20;3.17;;;;;;;;;;5070785;28;20053;-75
2022/09/26 13:01:47;;;;;;;8.98;3.20;;;;;;;;;;5064983;28;20102;-76
2022/09/26 13:04:16;;;;;;;5.40;3.00;;;;;;;;;;5072858;28;20080;-75
2022/09/26 13:06:54;;;;;;;8.60;3.83;;;;;;;;;;5057198;28;20107;-75
2022/09/26 13:09:35;;;;;;;10.30;3.58;;;;;;;;;;5052584;28;20052;-74
2022/09/26 13:12:11;;;;;;;12.35;3.40;;;;;;;;;;5063085;28;20048;-74
2022/09/26 13:14:59;;;;;;;7.82;3.45;;;;;;;;;;5055629;28;20098;-75
2022/09/26 13:17:31;;;;;;;9.40;3.95;;;;;;;;;;5071727;28;20095;-74
2022/09/26 13:20:13;;;;;;;13.20;4.15;;;;;;;;;;5019034;28;20047;-74
2022/09/26 13:22:45;;;;;;;10.15;3.33;;;;;;;;;;4972858;28;20104;-74
2022/09/26 13:25:17;;;;;;;13.40;4.18;;;;;;;;;;4960132;28;20059;-77
2022/09/26 13:27:47;;;;;;;10.05;3.45;;;;;;;;;;4962263;28;20409;-74
2022/09/26 13:30:13;;;;;;;12.75;4.80;;;;;;;;;;4961103;28;20410;-74
2022/09/26 13:32:59;;;;;;;10.77;3.60;;;;;;;;;;4953135;28;20104;-74
2022/09/26 13:35:26;;;;;;;10.07;3.40;;;;;;;;;;4953402;28;20414;-74
2022/09/26 13:37:52;;;;;;;8.70;3.33;;;;;;;;;;4953190;28;20048;-74
2022/09/26 13:40:34;;;;;;;12.43;4.18;;;;;;;;;;4961110;28;20051;-75
2022/09/26 13:43:03;;;;;;;8.55;3.15;;;;;;;;;;4953916;28;20039;-75
2022/09/26 13:45:36;;;;;;;10.18;3.50;;;;;;;;;;4972156;28;20046;-75
2022/09/26 13:48:11;;;;;;;9.93;3.53;;;;;;;;;;4971004;28;20046;-74
2022/09/26 13:50:41;;;;;;;12.05;3.72;;;;;;;;;;4970846;28;20043;-74
2022/09/26 13:53:13;;;;;;;10.05;3.40;;;;;;;;;;4960130;28;20047;-74
2022/09/26 13:55:42;;;;;;;12.02;3.20;;;;;;;;;;4968753;28;20054;-75
2022/09/26 13:58:21;;;;;;;12.00;3.42;;;;;;;;;;4958646;28;20108;-75
2022/09/26 14:00:51;;;;;;;10.73;2.88;;;;;;;;;;4956713;28;20065;-75
2022/09/26 14:03:18;;;;;;;11.30;3.08;;;;;;;;;;4997515;28;20043;-75
2022/09/26 14:05:45;;;;;;;11.70;3.33;;;;;;;;;;4963729;28;20475;-74
2022/09/26 14:11:30;;;;;;;10.90;3.30;;;;;;;;;;4960241;28;20485;-75
2022/09/26 14:14:18;;;;;;;9.35;2.67;;;;;;;;;;4972976;28;20083;-77
2022/09/26 14:16:48;;;;;;;7.53;2.45;;;;;;;;;;4971611;28;20138;-75
2022/09/26 14:19:17;;;;;;;8.43;2.45;;;;;;;;;;4971313;28;20046;-75
2022/09/26 14:22:04;;;;;;;10.23;2.65;;;;;;;;;;4958703;28;20044;-75
2022/09/26 14:24:30;;;;;;;10.23;2.83;;;;;;;;;;4959429;28;20103;-75
2022/09/26 14:27:11;;;;;;;10.05;3.10;;;;;;;;;;4957658;28;20137;-75
2022/09/26 14:29:41;;;;;;;11.45;3.13;;;;;;;;;;4966315;28;20537;-75
2022/09/26 14:32:08;;;;;;;14.63;3.70;;;;;;;;;;4969772;28;20129;-76
2022/09/26 14:34:42;;;;;;;9.32;3.20;;;;;;;;;;4956517;28;20059;-76
2022/09/26 14:37:23;;;;;;;9.25;2.80;;;;;;;;;;4971083;28;20135;-75
2022/09/26 14:40:04;;;;;;;8.15;2.53;;;;;;;;;;4970746;28;20100;-75
2022/09/26 14:42:43;;;;;;;8.32;2.03;;;;;;;;;;4966485;28;20065;-74
2022/09/26 14:45:20;;;;;;;6.10;2.03;;;;;;;;;;4971740;28;20489;-75
2022/09/26 14:47:48;;;;;;;6.82;2.38;;;;;;;;;;4958034;28;20578;-75
2022/09/26 14:50:16;;;;;;;8.07;2.47;;;;;;;;;;4959877;28;20058;-75
2022/09/26 14:52:50;;;;;;;9.10;2.60;;;;;;;;;;4951891;28;20493;-75
2022/09/26 14:55:16;;;;;;;9.90;2.63;;;;;;;;;;4955961;28;20043;-78
2022/09/26 14:57:42;;;;;;;7.93;2.10;;;;;;;;;;4958643;28;20126;-75
2022/09/26 15:00:27;;;;;;;6.68;1.92;;;;;;;;;;4954907;28;20134;-75
2022/09/26 15:02:55;;;;;;;7.63;2.47;;;;;;;;;;4955943;28;20043;-75
2022/09/26 15:05:22;;;;;;;2.55;1.50;;;;;;;;;;4938733;28;20050;-75
2022/09/26 15:07:50;;;;;;;5.47;1.80;;;;;;;;;;4954471;28;20164;-75
2022/09/26 15:10:21;;;;;;;6.00;2.22;;;;;;;;;;4969122;28;20081;-75
2022/09/26 15:12:49;;;;;;;5.72;1.90;;;;;;;;;;4969718;28;20047;-75
2022/09/26 15:15:31;;;;;;;5.75;1.73;;;;;;;;;;4966457;28;20038;-75
2022/09/26 15:18:26;;;;;;;5.60;1.80;;;;;;;;;;4953937;28;20054;-75
2022/09/26 15:20:57;;;;;;;4.72;1.48;;;;;;;;;;4975468;28;20098;-74